Hlavní strana
METAR-TAF:

METAR-TAF

Letiště :

Augsburg, Německo

zeměpisná šířka: 48-26N, zeměpisná délka: 010-56E, výška: 461 m

Aktuální stav počasí

Zpráva byla vytvořena před 40 minutami, v 20:50 UTC
Jižní vítr 4 kt, proměnlivý mezi jihovýchodním a jihozápadním
Teplota 13°C
Vlhkost vzduchu 94%
Tlak 1006 hPa
Viditelnost 10 km a více

METAR: EDMA 302050Z AUTO 18004KT 140V220 9999 // BKN073/// OVC083/// 13/12 Q1006

Čas: 23:30 (21:30 UTC)

Předpověď počasí

Zpráva byla vytvořena před 4 hodinami a 30 minutami, v 17:00 UTC
Předpověď platná od 30 v 18 UTC do 30 v 24 UTC
Západojihozápadní vítr 6 kt
Viditelnost 10 km a více
Skoro jasno ve výšce 4000 ft

TAF: EDMA 301700Z 3018/3024 24006KT 9999 FEW040

Stav a předpovědi počasí z více než 4 000 letišť (zprávy METAR a TAF).

Červené a žluté tečky na mapě představují dostupné meteorologické stanice.

Když kurzor umístíte na tečku, zobrazí se název stanice.

Pak kliknutím zobrazíte stav a předpověď počasí.

Chcete-li změnit mapu, kliknutím na zelené tlačítko se znaménkem +mapu přiblížíte, kliknutím na zelené tlačítko se znaménkem – mapu oddálíte a kliknutím na zelené šipky přejdete na sousední mapy.


METAR-TAF: